LFBY/XDA METAR and TAF weather

Enter ICAO airport designator
Station Type Date Time Source
LFBY METAR 2022/06/30 01:30 UTC NOAA

LFBY 300130Z AUTO VRB03KT 9999 // SCT029 OVC039 16/14 Q1015


Station Type Date Time Source
LFBY Decoded METAR 2022/06/30 01:30 UTC NOAA

Dax, France (LFBY) 43-41N 001-04W 32M
Jun 29, 2022 - 09:30 PM EDT / 2022.06.30 0130 UTC
Wind: Variable at 3 MPH (3 KT):0
Visibility: greater than 7 mile(s):0
Sky conditions: overcast
Temperature: 60 F (16 C)
Dew Point: 57 F (14 C)
Relative Humidity: 87%
Pressure (altimeter): 29.97 in. Hg (1015 hPa)
ob: LFBY 300130Z AUTO VRB03KT 9999 // SCT029 OVC039 16/14 Q1015
cycle: 1

Station Type Date Time Source
LFBY TAF UTC NOAA

Error!

Example: see airport list